Flight Track Log - Related Links

Times and Time Zones

All times are in EDT time to prevent confusion due to time zone crossing. See the VH-WPL flight status page for this flight to view local times or setup timezone preferences in your user account.

Time Position Orientation Groundspeed Altitude Reporting Facility
EDT Latitude Longitude Course Direction KTS MPH feet Rate Location/Type
Mon 07:03:25 PM -26.5786 151.8444 141° Southeast 7,000  Level Aus ATC (Calculated)
Mon 07:04:23 PM -26.6051 151.8687 111° Southeast 76 87 3,600 -1,806 Descending Aus ATC (RADAR)
Mon 07:05:08 PM -26.6118 151.8884 111° Southeast 87 100 3,900 450 Climbing Aus ATC (RADAR)
Mon 07:05:43 PM -26.6172 151.9037 111° Southeast 89 102 4,200 525 Climbing Aus ATC (RADAR)
Mon 07:06:28 PM -26.6240 151.9241 110° East 92 106 4,600 600 Climbing Aus ATC (RADAR)
Mon 07:06:53 PM -26.6289 151.9384 111° Southeast 106 122 4,900 514 Climbing Aus ATC (RADAR)
Mon 07:08:13 PM -26.6417 151.9758 111° Southeast 98 113 5,500 436 Climbing Aus ATC (RADAR)
Mon 07:08:43 PM -26.6480 151.9896 117° Southeast 99 114 5,700 462 Climbing Aus ATC (RADAR)
Mon 07:09:18 PM -26.6554 152.0055 117° Southeast 99 114 6,000 525 Climbing Aus ATC (RADAR)
Mon 07:10:03 PM -26.6646 152.0247 118° Southeast 95 109 6,400 525 Climbing Aus ATC (RADAR)
Mon 07:10:38 PM -26.6715 152.0392 118° Southeast 91 105 6,700 450 Climbing Aus ATC (RADAR)
Mon 07:11:23 PM -26.6799 152.0568 118° Southeast 86 99 7,000 257 Climbing Aus ATC (RADAR)
Mon 07:11:48 PM -26.6857 152.0672 121° Southeast 92 106 7,000  Level Aus ATC (RADAR)
Mon 07:13:03 PM -26.7088 152.1034 126° Southeast 118 136 7,000  Level Aus ATC (RADAR)
Mon 07:13:28 PM -26.7166 152.1174 122° Southeast 122 140 7,000  Level Aus ATC (RADAR)
Mon 07:13:58 PM -26.7249 152.1347 118° Southeast 127 146 7,000  Level Aus ATC (RADAR)
Mon 07:14:32 PM -26.7340 152.1557 116° Southeast 127 146 7,000  Level Aus ATC (RADAR)
Mon 07:15:17 PM -26.7451 152.1831 115° Southeast 127 146 7,000  Level Aus ATC (RADAR)
Mon 07:15:52 PM -26.7537 152.2049 114° Southeast 130 150 7,000  Level Aus ATC (RADAR)
Mon 07:16:42 PM -26.7658 152.2356 114° Southeast 130 150 7,000  Level Aus ATC (RADAR)
Mon 07:17:07 PM -26.7722 152.2508 115° Southeast 129 148 7,000  Level Aus ATC (RADAR)
Mon 07:18:27 PM -26.7922 152.2990 115° Southeast 126 145 7,000  Level Aus ATC (RADAR)
Mon 07:18:42 PM -26.7958 152.3082 114° Southeast 127 146 7,000  Level Aus ATC (RADAR)
Mon 07:19:17 PM -26.8070 152.3271 123° Southeast 124 143 7,000  Level Aus ATC (RADAR)
Mon 07:20:03 PM -26.8197 152.3532 119° Southeast 126 145 7,000  Level Aus ATC (RADAR)
Mon 07:20:42 PM -26.8316 152.3769 119° Southeast 128 147 7,000  Level Aus ATC (RADAR)
Mon 07:21:27 PM -26.8451 152.4029 120° Southeast 127 146 7,000  Level Aus ATC (RADAR)
Mon 07:21:52 PM -26.8522 152.4176 118° Southeast 127 146 7,000  Level Aus ATC (RADAR)
Mon 07:22:27 PM -26.8616 152.4381 117° Southeast 126 145 7,000  Level Aus ATC (RADAR)
Mon 07:23:41 PM -26.8811 152.4831 116° Southeast 127 146 7,000  Level Aus ATC (RADAR)
Mon 07:24:06 PM -26.8884 152.4974 120° Southeast 126 145 7,000  Level Aus ATC (RADAR)
Mon 07:24:41 PM -26.8976 152.5181 117° Southeast 125 144 7,000  Level Aus ATC (RADAR)
Mon 07:25:26 PM -26.9105 152.5442 119° Southeast 126 145 7,000  Level Aus ATC (RADAR)
Mon 07:26:01 PM -26.9198 152.5645 117° Southeast 124 143 7,000  Level Aus ATC (RADAR)
Mon 07:26:46 PM -26.9371 152.5867 131° Southeast 124 143 7,000  Level Aus ATC (RADAR)
Mon 07:27:11 PM -26.9477 152.5973 138° Southeast 123 142 7,000  Level Aus ATC (RADAR)
Mon 07:28:16 PM -26.9787 152.6193 148° Southeast 119 137 7,000  Level Aus ATC (RADAR)
Mon 07:28:51 PM -26.9952 152.6303 149° Southeast 117 135 7,000  Level Aus ATC (RADAR)
Mon 07:29:16 PM -27.0076 152.6371 154° Southeast 118 136 7,000  Level Aus ATC (RADAR)
Mon 07:29:51 PM -27.0248 152.6463 155° Southeast 118 136 7,000  Level Aus ATC (RADAR)
Mon 07:30:31 PM -27.0456 152.6549 160° South 119 137 7,000  Level Aus ATC (RADAR)
Mon 07:31:06 PM -27.0626 152.6642 154° Southeast 117 135 7,000 -71 Level Aus ATC (RADAR)
Mon 07:31:56 PM -27.0873 152.6785 153° Southeast 121 139 6,900 -240 Descending Aus ATC (RADAR)
Mon 07:32:21 PM -27.1008 152.6859 154° Southeast 125 144 6,700 -485 Descending Aus ATC (RADAR)
Mon 07:33:35 PM -27.1402 152.7121 149° Southeast 133 153 6,100 -519 Descending Aus ATC (RADAR)
Mon 07:34:05 PM -27.1562 152.7243 146° Southeast 137 158 5,800 -480 Descending Aus ATC (RADAR)
Mon 07:34:25 PM -27.1669 152.7318 148° Southeast 136 157 5,700 -545 Descending Aus ATC (RADAR)
Mon 07:35:00 PM -27.1856 152.7457 147° Southeast 135 155 5,300 -600 Descending Aus ATC (RADAR)
Mon 07:35:45 PM -27.2091 152.7630 147° Southeast 134 154 4,900 -600 Descending Aus ATC (RADAR)
Mon 07:36:20 PM -27.2289 152.7763 149° Southeast 140 161 4,500 -494 Descending Aus ATC (RADAR)
Mon 07:37:10 PM -27.2571 152.7973 147° Southeast 143 165 4,200 -240 Descending Aus ATC (RADAR)
Mon 07:37:35 PM -27.2717 152.8079 147° Southeast 147 169 4,200 -382 Level Aus ATC (RADAR)
Mon 07:39:00 PM -27.3179 152.8422 147° Southeast 135 155 3,500 -491 Descending Aus ATC (RADAR)
Mon 07:39:25 PM -27.3321 152.8528 146° Southeast 143 165 3,300 -500 Descending Aus ATC (RADAR)
Mon 07:40:00 PM -27.3510 152.8679 145° Southeast 139 160 3,000 -714 Descending Aus ATC (RADAR)
Mon 07:40:49 PM -27.3788 152.8832 154° Southeast 133 153 2,300 -714 Descending Aus ATC (RADAR)
Mon 07:41:24 PM -27.3989 152.8928 157° South 132 152 2,000 -488 Descending Aus ATC (RADAR)
Mon 07:42:15 PM -27.4276 152.9061 158° South 133 153 1,600 -320 Descending Aus ATC (RADAR)
Mon 07:42:39 PM -27.4416 152.9118 160° South 128 147 1,600 -105 Level Aus ATC (RADAR)
Mon 07:44:09 PM -27.4921 152.9274 165° South 124 143 1,400  Descending Aus ATC (RADAR)
Mon 07:44:34 PM -27.5050 152.9341 155° Southeast 122 140 1,600 100 Climbing Aus ATC (RADAR)
Mon 07:45:09 PM -27.5229 152.9430 156° South 122 140 1,500 -375 Descending Aus ATC (RADAR)
Mon 07:45:54 PM -27.5407 152.9640 134° Southeast 119 137 1,100 -375 Descending Aus ATC (RADAR)
Mon 07:46:29 PM -27.5478 152.9841 112° Southeast 115 132 1,000  Descending Aus ATC (RADAR)
Mon 07:47:14 PM -27.5525 153.0091 102° East 107 123 1,100  Climbing Aus ATC (RADAR)
Mon 07:47:39 PM -27.5558 153.0228 105° East 107 123 1,000 -379 Descending Aus ATC (RADAR)
Mon 07:48:49 PM -27.5764 153.0313 160° South 82 94 500 -364 Descending Aus ATC (RADAR)
Mon 07:49:18 PM -27.5782 153.0207 259° West 66 76 400 -400 Descending Aus ATC (RADAR)
Mon 07:49:34 PM -27.5760 153.0152 295° West 68 78 200 -600 Descending Aus ATC (RADAR)
Mon 07:49:48 PM -27.5746 153.0101 287° West 69 79 100 -429 Descending Aus ATC (RADAR)

Login

Don't have an account? Register now (free) for customized features, flight alerts, and more!